Time;durP1;ratioP1;P1;durP2;ratioP2;P2;SDS_P1;SDS_P2;PMS_P1;PMS_P2;Temp;Humidity;BMP_temperature;BMP_pressure;BME280_temperature;BME280_humidity;BME280_pressure;Samples;Min_cycle;Max_cycle;Signal;HPM_P1;HPM_P2
2022/08/10 00:02:37;;;;;;;2.33;2.10;;;25.50;50.10;;;;;;5008576;28;20488;-84
2022/08/10 00:05:15;;;;;;;2.57;2.37;;;25.30;50.30;;;;;;5006402;28;20546;-85
2022/08/10 00:07:52;;;;;;;3.10;2.30;;;25.30;50.60;;;;;;4979807;28;20970;-85
2022/08/10 00:10:23;;;;;;;2.73;2.53;;;25.40;50.60;;;;;;5000569;28;20434;-85
2022/08/10 00:12:59;;;;;;;2.57;2.37;;;25.40;50.00;;;;;;4994029;28;20478;-85
2022/08/10 00:15:35;;;;;;;3.20;2.90;;;25.40;50.70;;;;;;4986989;28;20451;-85
2022/08/10 00:18:15;;;;;;;2.53;2.37;;;25.30;50.20;;;;;;4984181;28;20465;-84
2022/08/10 00:21:07;;;;;;;3.73;2.40;;;25.30;50.20;;;;;;4990869;28;20462;-86
2022/08/10 00:23:39;;;;;;;2.53;2.33;;;25.30;50.20;;;;;;4983424;28;20883;-83
2022/08/10 00:26:09;;;;;;;2.60;2.40;;;25.30;50.40;;;;;;4985801;28;20463;-84
2022/08/10 00:28:40;;;;;;;3.30;2.93;;;25.40;50.20;;;;;;4992735;28;20454;-85
2022/08/10 00:31:09;;;;;;;2.80;2.60;;;25.30;50.20;;;;;;5009508;28;20458;-83
2022/08/10 00:33:37;;;;;;;2.73;2.20;;;25.20;50.20;;;;;;4991081;28;21012;-84
2022/08/10 00:36:10;;;;;;;2.33;2.13;;;25.20;50.50;;;;;;5008189;28;20778;-85
2022/08/10 00:38:37;;;;;;;2.50;2.30;;;25.20;50.80;;;;;;5012715;28;20443;-85
2022/08/10 00:41:08;;;;;;;2.97;2.50;;;25.10;50.80;;;;;;4995249;28;20480;-85
2022/08/10 00:43:37;;;;;;;2.60;2.40;;;25.20;50.80;;;;;;4984580;28;20475;-85
2022/08/10 00:46:07;;;;;;;2.37;2.27;;;25.10;50.90;;;;;;4997738;28;20481;-84
2022/08/10 00:48:42;;;;;;;3.20;2.90;;;25.10;51.10;;;;;;4993081;28;20471;-86
2022/08/10 00:51:11;;;;;;;2.50;2.30;;;25.10;51.30;;;;;;5010972;28;20486;-84
2022/08/10 00:53:38;;;;;;;2.67;2.47;;;25.10;51.60;;;;;;5008121;28;20476;-86
2022/08/10 00:56:11;;;;;;;2.73;2.53;;;25.10;51.60;;;;;;5008843;28;20452;-86
2022/08/10 00:59:04;;;;;;;3.87;2.93;;;25.10;51.70;;;;;;5000585;28;20480;-84
2022/08/10 01:01:42;;;;;;;4.10;3.07;;;25.10;51.60;;;;;;5008159;28;20462;-83
2022/08/10 01:04:34;;;;;;;2.30;2.17;;;25.20;51.20;;;;;;4987335;28;20467;-83
2022/08/10 01:07:45;;;;;;;2.60;2.40;;;25.00;51.60;;;;;;4989754;28;20444;-87
2022/08/10 01:11:07;;;;;;;2.53;2.33;;;24.90;52.00;;;;;;5007379;28;20467;-85
2022/08/10 01:14:06;;;;;;;2.37;2.27;;;24.90;52.40;;;;;;4999950;28;20498;-85
2022/08/10 01:16:48;;;;;;;2.83;2.60;;;24.80;52.50;;;;;;4988127;28;20459;-85
2022/08/10 01:19:56;;;;;;;2.90;2.70;;;24.90;53.20;;;;;;4996955;28;20455;-85
2022/08/10 01:22:53;;;;;;;4.27;3.47;;;24.80;52.70;;;;;;4969650;28;20479;-85
2022/08/10 01:25:50;;;;;;;3.20;2.37;;;24.60;52.90;;;;;;4997562;28;20463;-84
2022/08/10 01:28:52;;;;;;;2.57;2.37;;;24.70;53.00;;;;;;4975281;28;20448;-84
2022/08/10 01:31:36;;;;;;;3.83;2.80;;;24.60;53.30;;;;;;4982652;28;20455;-85
2022/08/10 01:34:19;;;;;;;3.20;2.70;;;24.60;53.50;;;;;;4970400;28;21012;-86
2022/08/10 01:37:01;;;;;;;3.27;2.70;;;24.60;53.60;;;;;;4974473;28;20510;-85
2022/08/10 01:39:39;;;;;;;3.50;2.43;;;24.60;53.60;;;;;;4972389;28;20485;-85
2022/08/10 01:42:18;;;;;;;3.27;2.97;;;24.60;53.30;;;;;;4983440;28;20474;-84
2022/08/10 01:45:05;;;;;;;3.20;3.00;;;24.60;53.10;;;;;;4980553;28;20459;-85
2022/08/10 01:50:44;;;;;;;2.97;2.77;;;24.60;53.00;;;;;;4992334;28;20460;-83
2022/08/10 01:53:25;;;;;;;3.67;3.17;;;24.50;53.00;;;;;;4972872;28;20483;-83
2022/08/10 01:56:06;;;;;;;3.60;2.67;;;24.50;53.20;;;;;;4993364;28;20490;-86
2022/08/10 01:58:37;;;;;;;2.53;2.30;;;24.50;53.50;;;;;;4981257;28;20467;-83
2022/08/10 02:01:13;;;;;;;4.00;3.00;;;24.60;53.70;;;;;;4976815;28;20467;-83
2022/08/10 02:03:49;;;;;;;3.00;2.80;;;24.50;53.90;;;;;;4997573;28;20514;-83
2022/08/10 02:06:34;;;;;;;2.67;2.50;;;24.40;54.10;;;;;;4979954;28;20491;-85
2022/08/10 02:09:13;;;;;;;2.80;2.60;;;24.40;54.40;;;;;;4982251;28;20463;-85
2022/08/10 02:11:42;;;;;;;3.30;3.00;;;24.40;54.70;;;;;;4982421;28;20451;-84
2022/08/10 02:14:25;;;;;;;3.00;2.73;;;24.40;55.10;;;;;;4976290;28;20485;-84
2022/08/10 02:17:05;;;;;;;3.53;2.70;;;24.40;55.20;;;;;;4979246;28;20464;-84
2022/08/10 02:19:57;;;;;;;3.00;2.70;;;24.30;55.40;;;;;;4983324;28;20451;-85
2022/08/10 02:22:27;;;;;;;3.40;3.20;;;24.30;55.40;;;;;;4988215;28;20497;-85
2022/08/10 02:25:08;;;;;;;2.70;2.50;;;24.30;55.50;;;;;;4991582;28;20490;-84
2022/08/10 02:28:00;;;;;;;2.70;2.43;;;24.20;55.50;;;;;;4992722;28;20443;-85
2022/08/10 02:30:31;;;;;;;2.77;2.57;;;24.20;55.30;;;;;;4994096;28;20452;-84
2022/08/10 02:33:02;;;;;;;3.20;2.97;;;24.10;55.70;;;;;;4992465;28;20831;-84
2022/08/10 02:35:33;;;;;;;4.23;2.70;;;24.10;56.40;;;;;;4994925;28;20540;-86
2022/08/10 02:38:17;;;;;;;3.10;2.53;;;24.10;56.00;;;;;;4992551;28;20462;-84
2022/08/10 02:40:48;;;;;;;3.50;3.00;;;24.10;56.20;;;;;;4976015;28;20447;-84
2022/08/10 02:43:53;;;;;;;3.20;2.90;;;24.10;56.40;;;;;;4983025;28;20471;-84
2022/08/10 02:46:50;;;;;;;3.17;2.77;;;24.10;56.40;;;;;;4981580;28;20517;-82
2022/08/10 02:49:28;;;;;;;2.47;2.37;;;24.00;56.40;;;;;;5000972;28;20447;-87
2022/08/10 02:52:08;;;;;;;2.60;2.40;;;24.00;56.20;;;;;;4976759;28;20941;-83
2022/08/10 02:54:47;;;;;;;4.50;2.50;;;24.00;56.10;;;;;;4985006;28;20470;-86
2022/08/10 02:57:37;;;;;;;2.80;2.60;;;24.00;56.10;;;;;;4982771;28;20558;-85
2022/08/10 03:00:27;;;;;;;3.17;2.97;;;24.00;56.20;;;;;;5004171;28;20448;-86
2022/08/10 03:03:04;;;;;;;3.37;3.17;;;23.90;56.20;;;;;;4987340;28;20570;-84
2022/08/10 03:05:41;;;;;;;3.20;3.00;;;23.90;56.30;;;;;;4984873;28;20454;-84
2022/08/10 03:08:10;;;;;;;3.57;2.80;;;23.80;56.40;;;;;;4987092;28;20488;-84
2022/08/10 03:10:39;;;;;;;3.70;3.50;;;23.80;56.50;;;;;;4987417;28;20501;-84
2022/08/10 03:13:18;;;;;;;4.13;2.90;;;23.70;56.50;;;;;;5000337;28;20481;-85
2022/08/10 03:15:52;;;;;;;3.63;2.80;;;23.70;56.60;;;;;;4996148;28;20530;-84
2022/08/10 03:18:29;;;;;;;3.20;2.87;;;23.80;56.60;;;;;;4980822;28;20438;-86
2022/08/10 03:21:02;;;;;;;2.83;2.63;;;23.70;56.50;;;;;;5001104;28;20463;-86
2022/08/10 03:23:41;;;;;;;3.20;2.37;;;23.80;56.50;;;;;;4989701;28;20485;-85
2022/08/10 03:26:15;;;;;;;2.87;2.60;;;23.80;56.40;;;;;;4987307;28;20442;-84
2022/08/10 03:28:55;;;;;;;4.83;3.00;;;23.70;56.40;;;;;;4985691;28;20458;-86
2022/08/10 03:31:27;;;;;;;2.93;2.73;;;23.70;56.40;;;;;;5000913;28;20453;-84
2022/08/10 03:33:59;;;;;;;3.20;2.77;;;23.70;56.50;;;;;;4993558;28;20475;-85
2022/08/10 03:36:30;;;;;;;3.73;2.60;;;23.70;56.60;;;;;;4971338;28;21000;-84
2022/08/10 03:39:10;;;;;;;3.30;3.10;;;23.70;56.80;;;;;;4972468;28;20956;-83
2022/08/10 03:41:47;;;;;;;2.80;2.60;;;23.70;56.70;;;;;;4982169;28;20460;-86
2022/08/10 03:44:23;;;;;;;2.93;2.73;;;23.70;56.50;;;;;;4977521;28;20474;-86
2022/08/10 03:46:59;;;;;;;6.10;3.20;;;23.60;56.00;;;;;;4993843;28;20456;-85
2022/08/10 03:49:30;;;;;;;2.83;2.63;;;23.60;56.10;;;;;;4990139;28;20510;-84
2022/08/10 03:51:58;;;;;;;4.70;2.87;;;23.50;56.10;;;;;;4995309;28;20447;-86
2022/08/10 03:54:26;;;;;;;3.17;2.97;;;23.60;56.40;;;;;;4993487;28;20480;-85
2022/08/10 03:56:53;;;;;;;4.00;2.97;;;23.50;56.50;;;;;;4973618;28;20463;-84
2022/08/10 03:59:21;;;;;;;3.47;3.17;;;23.50;56.70;;;;;;4989381;28;20464;-84
2022/08/10 04:01:50;;;;;;;4.37;3.20;;;23.50;56.80;;;;;;4998609;28;20467;-87
2022/08/10 04:04:36;;;;;;;4.60;2.83;;;23.50;56.90;;;;;;4986833;28;20472;-84
2022/08/10 04:07:04;;;;;;;2.90;2.60;;;23.40;56.80;;;;;;4988505;28;20452;-85
2022/08/10 04:09:33;;;;;;;4.33;2.93;;;23.40;57.00;;;;;;4976899;28;20463;-84
2022/08/10 04:12:09;;;;;;;3.60;3.30;;;23.40;57.30;;;;;;4979631;28;20455;-86
2022/08/10 04:14:36;;;;;;;3.60;3.17;;;23.40;56.90;;;;;;4989352;28;21078;-85
2022/08/10 04:17:17;;;;;;;3.10;2.90;;;23.30;56.80;;;;;;4993873;28;20467;-85
2022/08/10 04:20:09;;;;;;;3.87;3.47;;;23.30;56.60;;;;;;4989090;28;20455;-85
2022/08/10 04:22:38;;;;;;;4.13;3.73;;;23.30;56.60;;;;;;5000052;28;20483;-84
2022/08/10 04:25:07;;;;;;;3.67;3.37;;;23.20;56.50;;;;;;4996888;28;20459;-85
2022/08/10 04:27:34;;;;;;;3.47;2.90;;;23.20;56.50;;;;;;4982176;28;20920;-84
2022/08/10 04:30:01;;;;;;;3.43;3.10;;;23.20;56.70;;;;;;4979712;28;20495;-84
2022/08/10 04:32:30;;;;;;;4.63;3.20;;;23.00;56.70;;;;;;4974287;28;20460;-85
2022/08/10 04:34:59;;;;;;;4.50;3.20;;;22.90;57.10;;;;;;4983244;28;21056;-85
2022/08/10 04:37:28;;;;;;;4.00;3.60;;;22.90;57.30;;;;;;4978203;28;21137;-84
2022/08/10 04:39:56;;;;;;;3.97;3.27;;;22.90;57.40;;;;;;4998473;28;20558;-85
2022/08/10 04:42:23;;;;;;;5.07;3.23;;;22.70;57.50;;;;;;4970336;28;20455;-85
2022/08/10 04:44:50;;;;;;;9.97;3.83;;;22.80;57.70;;;;;;4993577;28;20994;-83
2022/08/10 04:47:16;;;;;;;5.43;3.20;;;22.80;57.60;;;;;;4992762;28;20456;-84
2022/08/10 04:50:04;;;;;;;3.30;3.00;;;22.80;57.40;;;;;;4993495;28;20534;-83
2022/08/10 04:52:30;;;;;;;5.07;4.20;;;22.90;57.80;;;;;;4978833;28;20463;-84
2022/08/10 04:54:57;;;;;;;3.50;3.20;;;22.90;58.00;;;;;;4972372;28;20479;-84
2022/08/10 04:57:24;;;;;;;3.70;3.20;;;23.00;58.00;;;;;;4971869;28;20460;-83
2022/08/10 04:59:50;;;;;;;3.40;3.10;;;23.00;57.90;;;;;;4976112;28;20819;-85
2022/08/10 05:02:17;;;;;;;4.63;3.80;;;22.90;57.90;;;;;;4971222;28;20479;-84
2022/08/10 05:04:57;;;;;;;3.53;3.23;;;23.10;57.80;;;;;;4990154;28;20521;-82
2022/08/10 05:07:24;;;;;;;3.43;3.10;;;23.00;57.60;;;;;;4977255;28;20454;-85
2022/08/10 05:09:53;;;;;;;4.27;3.40;;;23.10;57.30;;;;;;4976124;28;20455;-84
2022/08/10 05:12:33;;;;;;;4.27;3.47;;;23.20;57.30;;;;;;4994919;28;20462;-83
2022/08/10 05:15:04;;;;;;;4.07;3.67;;;23.00;57.80;;;;;;4972598;28;20472;-84
2022/08/10 05:17:33;;;;;;;5.87;3.47;;;22.90;58.30;;;;;;4971154;28;20583;-84
2022/08/10 05:20:00;;;;;;;3.80;3.40;;;23.00;58.90;;;;;;4974639;28;20459;-84
2022/08/10 05:22:43;;;;;;;4.23;3.83;;;22.90;58.80;;;;;;4983967;28;20459;-85
2022/08/10 05:25:13;;;;;;;4.63;3.50;;;22.90;58.30;;;;;;4993100;28;20455;-86
2022/08/10 05:27:41;;;;;;;3.90;3.60;;;23.00;57.80;;;;;;4986291;28;20451;-85
2022/08/10 05:30:12;;;;;;;5.20;3.97;;;22.90;57.80;;;;;;4995085;28;20464;-85
2022/08/10 05:32:38;;;;;;;4.90;4.07;;;23.20;57.60;;;;;;4986294;28;20478;-84
2022/08/10 05:35:24;;;;;;;4.60;4.20;;;23.30;57.10;;;;;;4991715;28;20490;-84
2022/08/10 05:37:51;;;;;;;7.77;4.63;;;23.20;57.00;;;;;;4974605;28;20466;-85
2022/08/10 05:40:40;;;;;;;4.30;3.90;;;23.00;57.20;;;;;;4977527;28;20463;-85
2022/08/10 05:43:08;;;;;;;4.20;3.80;;;22.80;57.60;;;;;;4977752;28;20496;-85
2022/08/10 05:45:38;;;;;;;4.83;4.20;;;22.70;57.60;;;;;;4975893;28;20455;-85
2022/08/10 05:48:25;;;;;;;3.47;3.10;;;22.80;58.00;;;;;;4981305;28;20456;-82
2022/08/10 05:51:08;;;;;;;5.23;3.40;;;22.70;58.20;;;;;;5002613;28;20437;-84
2022/08/10 05:53:37;;;;;;;5.23;3.93;;;22.70;58.10;;;;;;4983052;28;20475;-85
2022/08/10 05:56:24;;;;;;;4.23;3.83;;;22.70;58.10;;;;;;4981997;28;20455;-81
2022/08/10 05:58:51;;;;;;;5.40;4.00;;;22.60;57.80;;;;;;4996990;28;20459;-84
2022/08/10 06:01:23;;;;;;;4.77;4.10;;;22.70;58.10;;;;;;4991991;28;20467;-84
2022/08/10 06:03:57;;;;;;;6.60;4.10;;;22.80;58.50;;;;;;4990025;28;20470;-85
2022/08/10 06:06:26;;;;;;;4.60;4.20;;;22.70;58.60;;;;;;4978670;28;20462;-85
2022/08/10 06:08:56;;;;;;;10.50;4.03;;;22.80;59.20;;;;;;4979289;28;20459;-84
2022/08/10 06:11:23;;;;;;;8.80;4.30;;;23.00;59.10;;;;;;4982052;28;20524;-84
2022/08/10 06:16:59;;;;;;;8.90;4.87;;;23.20;58.10;;;;;;4990873;28;20458;-85
2022/08/10 06:19:28;;;;;;;10.70;5.30;;;23.30;57.10;;;;;;4978311;28;20463;-85
2022/08/10 06:22:00;;;;;;;14.70;6.30;;;23.30;57.20;;;;;;4982269;28;21135;-83
2022/08/10 06:24:32;;;;;;;14.97;5.50;;;23.20;57.20;;;;;;4977818;28;20487;-85
2022/08/10 06:26:59;;;;;;;8.80;4.80;;;23.20;57.40;;;;;;4989221;28;21111;-84
2022/08/10 06:29:30;;;;;;;6.33;4.40;;;23.50;58.00;;;;;;4999676;28;20459;-85
2022/08/10 06:31:59;;;;;;;6.00;4.07;;;25.40;55.20;;;;;;4999543;28;20514;-85
2022/08/10 06:34:30;;;;;;;5.33;4.40;;;28.80;49.60;;;;;;4985445;28;20499;-83
2022/08/10 06:37:01;;;;;;;3.53;3.23;;;30.70;44.40;;;;;;4978643;28;20471;-84
2022/08/10 06:39:29;;;;;;;6.10;2.67;;;29.90;43.00;;;;;;4986612;28;20945;-85
2022/08/10 06:42:14;;;;;;;3.00;2.80;;;28.20;43.90;;;;;;4972677;28;20502;-85
2022/08/10 06:44:54;;;;;;;5.80;3.63;;;26.80;47.00;;;;;;4984956;28;20505;-84
2022/08/10 06:47:36;;;;;;;4.20;3.80;;;25.70;49.00;;;;;;5004208;28;20518;-85
2022/08/10 06:50:11;;;;;;;3.47;3.17;;;25.20;50.60;;;;;;4995311;28;20535;-84
2022/08/10 06:52:40;;;;;;;6.33;3.70;;;24.90;51.60;;;;;;4997869;28;20509;-84
2022/08/10 06:55:11;;;;;;;5.63;3.73;;;24.60;52.00;;;;;;4988241;28;20447;-85
2022/08/10 06:57:40;;;;;;;4.87;3.93;;;24.60;52.70;;;;;;4979044;28;20519;-84
2022/08/10 07:00:13;;;;;;;4.00;3.60;;;24.70;52.60;;;;;;4970767;28;20948;-86
2022/08/10 07:02:56;;;;;;;3.87;3.40;;;24.50;52.90;;;;;;4971629;28;20499;-85
2022/08/10 07:05:30;;;;;;;9.03;2.97;;;24.90;52.70;;;;;;4973112;28;20479;-85
2022/08/10 07:08:06;;;;;;;4.40;4.10;;;24.80;53.00;;;;;;4980245;28;20455;-84
2022/08/10 07:10:37;;;;;;;3.90;3.40;;;24.90;52.90;;;;;;4979412;28;20459;-85
2022/08/10 07:13:19;;;;;;;4.33;3.17;;;24.60;52.80;;;;;;4973663;28;20554;-86
2022/08/10 07:16:11;;;;;;;4.70;3.17;;;24.60;53.20;;;;;;5000876;28;21526;-86
2022/08/10 07:18:41;;;;;;;3.77;3.37;;;25.20;52.20;;;;;;4994800;28;20448;-82
2022/08/10 07:21:32;;;;;;;4.87;3.53;;;25.50;51.60;;;;;;4975879;28;20503;-84
2022/08/10 07:24:14;;;;;;;3.70;3.40;;;25.80;51.10;;;;;;4953542;28;20929;-84
2022/08/10 07:26:58;;;;;;;6.13;3.40;;;26.00;50.30;;;;;;4974211;28;20547;-84
2022/08/10 07:33:01;;;;;;;4.20;2.93;;;26.20;48.50;;;;;;4991049;28;20454;-83
2022/08/10 07:35:34;;;;;;;4.07;3.17;;;27.60;46.80;;;;;;4978274;28;20462;-84
2022/08/10 07:38:24;;;;;;;4.90;3.13;;;28.30;45.00;;;;;;4970630;28;20464;-84
2022/08/10 07:40:59;;;;;;;3.57;3.17;;;30.00;42.40;;;;;;4988938;28;20455;-85
2022/08/10 07:43:41;;;;;;;3.67;3.37;;;31.90;40.30;;;;;;4979660;28;21088;-84
2022/08/10 07:46:16;;;;;;;3.17;2.87;;;34.60;37.20;;;;;;4993687;28;20482;-84
2022/08/10 07:49:25;;;;;;;5.27;2.90;;;35.10;35.10;;;;;;4979828;28;20506;-84
2022/08/10 07:52:09;;;;;;;;;;;;;;;;;;;;;
2022/08/10 07:54:51;;;;;;;2.63;2.43;;;36.40;32.60;;;;;;4998339;28;20467;-84
2022/08/10 07:57:46;;;;;;;3.10;2.90;;;37.60;31.60;;;;;;4979363;28;20455;-85
2022/08/10 08:01:23;;;;;;;3.30;2.30;;;38.60;30.60;;;;;;4996932;28;20491;-84
2022/08/10 08:10:17;;;;;;;3.30;3.10;;;38.70;29.10;;;;;;5003874;28;20462;-85
2022/08/10 08:13:02;;;;;;;3.87;2.83;;;39.10;28.50;;;;;;4975937;28;20475;-85
2022/08/10 08:15:57;;;;;;;4.10;2.93;;;39.50;28.40;;;;;;4994749;28;20462;-85
2022/08/10 08:19:02;;;;;;;3.97;3.07;;;40.50;27.50;;;;;;4988361;28;20467;-84
2022/08/10 08:22:06;;;;;;;;;;;;;;;;;;;;;
2022/08/10 08:25:36;;;;;;;2.97;2.77;;;39.30;27.70;;;;;;4984064;28;20460;-82
2022/08/10 08:28:20;;;;;;;3.07;2.87;;;39.60;27.30;;;;;;4987996;28;20894;-84
2022/08/10 08:31:12;;;;;;;2.57;2.47;;;38.90;27.70;;;;;;4996766;28;20981;-87
2022/08/10 08:33:56;;;;;;;3.57;2.60;;;39.60;27.30;;;;;;4980266;28;20482;-85
2022/08/10 08:36:50;;;;;;;2.70;2.50;;;39.50;27.30;;;;;;4989739;28;20451;-84
2022/08/10 08:39:41;;;;;;;2.80;2.60;;;39.00;27.70;;;;;;4965901;28;20436;-87
2022/08/10 08:43:12;;;;;;;2.80;2.60;;;39.60;27.10;;;;;;4986842;28;20459;-85
2022/08/10 08:46:09;;;;;;;5.17;2.70;;;39.80;27.00;;;;;;4925366;29;20923;-84
2022/08/10 08:49:48;;;;;;;3.40;3.10;;;39.50;26.80;;;;;;4998672;28;20439;-86
2022/08/10 08:53:18;;;;;;;4.00;2.63;;;38.50;27.80;;;;;;4999787;28;20863;-87
2022/08/10 09:00:53;;;;;;;5.33;2.70;;;39.80;26.70;;;;;;5005136;28;20465;-86
2022/08/10 09:03:39;;;;;;;2.90;2.70;;;39.70;26.80;;;;;;4943483;29;20474;-84
2022/08/10 09:06:39;;;;;;;3.10;2.87;;;39.40;26.70;;;;;;5001441;28;20677;-84
2022/08/10 09:10:04;;;;;;;3.27;2.90;;;38.90;27.40;;;;;;4993278;28;20511;-84
2022/08/10 09:13:03;;;;;;;2.83;2.63;;;39.70;26.60;;;;;;4982999;28;20478;-85
2022/08/10 09:16:15;;;;;;;2.50;2.40;;;40.70;25.90;;;;;;4980613;28;20230;-84
2022/08/10 09:18:49;;;;;;;3.10;2.80;;;40.60;25.60;;;;;;4929147;29;20240;-85
2022/08/10 09:21:56;;;;;;;2.50;2.30;;;40.90;25.30;;;;;;5014118;28;20203;-85
2022/08/10 09:25:03;;;;;;;4.10;2.43;;;40.40;25.40;;;;;;4982498;28;20230;-85
2022/08/10 09:27:44;;;;;;;2.27;2.10;;;39.80;26.10;;;;;;4985281;28;20713;-84
2022/08/10 09:30:37;;;;;;;4.60;2.50;;;40.20;25.70;;;;;;4983623;28;20666;-86
2022/08/10 09:34:19;;;;;;;2.37;2.23;;;40.70;25.40;;;;;;4993654;28;20227;-84
2022/08/10 09:38:05;;;;;;;;;;;;;;;;;;;;;
2022/08/10 09:41:10;;;;;;;2.20;2.10;;;40.30;25.60;;;;;;5001062;28;20204;-85
2022/08/10 09:43:53;;;;;;;4.20;3.00;;;39.60;25.60;;;;;;5000660;28;20219;-83
2022/08/10 09:46:44;;;;;;;2.30;2.17;;;38.70;26.30;;;;;;5001970;28;20223;-84
2022/08/10 09:49:51;;;;;;;2.70;2.50;;;40.40;25.30;;;;;;4998529;28;20199;-84
2022/08/10 09:56:17;;;;;;;4.05;2.80;;;39.50;25.70;;;;;;4980445;28;20196;-84
2022/08/10 09:59:38;;;;;;;2.63;2.42;;;40.50;25.10;;;;;;4999710;28;20688;-85
2022/08/10 10:03:00;;;;;;;2.88;2.67;;;39.60;25.40;;;;;;4982556;28;20207;-86
2022/08/10 10:05:50;;;;;;;3.08;2.88;;;39.10;25.80;;;;;;5002492;28;20278;-85
2022/08/10 10:08:39;;;;;;;2.70;2.50;;;39.80;25.20;;;;;;4995677;28;20604;-86
2022/08/10 10:11:25;;;;;;;2.80;2.20;;;39.80;24.70;;;;;;4995696;28;20203;-85
2022/08/10 10:14:00;;;;;;;2.47;2.28;;;38.30;25.70;;;;;;5001723;28;20234;-85
2022/08/10 10:17:02;;;;;;;2.75;2.45;;;38.70;25.40;;;;;;4990138;28;20699;-85
2022/08/10 10:20:01;;;;;;;2.17;2.07;;;37.50;26.40;;;;;;4996807;28;20203;-85
2022/08/10 10:23:10;;;;;;;5.30;2.50;;;36.90;27.40;;;;;;4987941;28;20228;-86
2022/08/10 10:25:56;;;;;;;2.50;2.20;;;37.30;26.80;;;;;;4966580;28;20222;-85
2022/08/10 10:29:35;;;;;;;3.40;1.98;;;38.00;26.10;;;;;;4986563;28;20210;-84
2022/08/10 10:32:34;;;;;;;2.70;2.50;;;39.30;25.20;;;;;;4957260;28;20271;-86
2022/08/10 10:35:22;;;;;;;2.40;2.30;;;39.10;24.80;;;;;;4993485;28;20250;-86
2022/08/10 10:38:01;;;;;;;3.93;2.70;;;38.00;25.60;;;;;;4999010;28;20465;-84
2022/08/10 10:44:30;;;;;;;3.93;2.50;;;37.50;26.00;;;;;;4946029;28;20476;-85
2022/08/10 10:47:48;;;;;;;2.50;2.40;;;37.50;26.20;;;;;;4999009;28;20525;-85
2022/08/10 10:50:54;;;;;;;3.07;2.50;;;37.20;26.20;;;;;;4992147;28;20511;-84
2022/08/10 10:53:46;;;;;;;2.60;2.40;;;38.00;25.80;;;;;;4993984;28;20538;-86
2022/08/10 10:56:32;;;;;;;2.60;2.40;;;38.60;25.20;;;;;;4994268;28;20431;-85
2022/08/10 10:59:19;;;;;;;2.10;2.00;;;37.20;25.20;;;;;;5001212;28;20454;-87
2022/08/10 11:02:52;;;;;;;2.83;2.50;;;37.80;25.10;;;;;;4988783;28;20513;-85
2022/08/10 11:06:47;;;;;;;2.60;2.40;;;38.00;24.80;;;;;;5002004;28;20512;-84
2022/08/10 11:09:54;;;;;;;2.50;2.30;;;37.80;25.00;;;;;;4930962;28;20465;-86
2022/08/10 11:13:21;;;;;;;2.63;2.37;;;38.20;25.10;;;;;;5000892;28;20414;-85
2022/08/10 11:16:53;;;;;;;2.20;2.10;;;36.80;25.70;;;;;;4957895;28;20442;-83
2022/08/10 11:19:44;;;;;;;4.77;2.60;;;37.60;24.90;;;;;;4971712;28;20454;-84
2022/08/10 11:23:17;;;;;;;2.10;2.00;;;37.60;25.20;;;;;;4979539;28;20462;-85
2022/08/10 11:26:36;;;;;;;1.90;1.80;;;37.60;25.30;;;;;;5002439;28;20525;-85
2022/08/10 11:29:30;;;;;;;3.30;2.30;;;37.00;25.70;;;;;;5017303;28;20442;-85
2022/08/10 11:32:33;;;;;;;1.90;1.80;;;37.50;25.50;;;;;;4936836;29;20430;-86
2022/08/10 11:35:27;;;;;;;2.43;2.23;;;38.30;24.80;;;;;;4999826;28;20439;-86
2022/08/10 11:38:28;;;;;;;2.23;2.13;;;38.40;24.20;;;;;;5015261;28;20436;-86
2022/08/10 11:41:42;;;;;;;2.00;1.80;;;38.10;24.10;;;;;;5015974;28;20586;-87
2022/08/10 11:49:02;;;;;;;3.93;2.90;;;37.50;24.60;;;;;;5009848;28;20437;-82
2022/08/10 11:52:05;;;;;;;2.03;1.93;;;37.30;25.40;;;;;;4995579;28;20939;-83
2022/08/10 11:55:15;;;;;;;2.00;1.90;;;37.20;25.40;;;;;;5003352;28;20473;-86
2022/08/10 11:59:54;;;;;;;1.90;1.80;;;37.40;25.20;;;;;;4994269;28;20446;-84
2022/08/10 12:01:10;;;;;;;2.40;2.30;;;37.10;25.20;;;;;;4994895;28;20452;-85
2022/08/10 12:04:13;;;;;;;2.53;2.33;;;37.70;25.10;;;;;;4987963;28;20501;-84
2022/08/10 12:07:22;;;;;;;2.40;2.10;;;37.60;25.20;;;;;;4968721;28;20469;-85
2022/08/10 12:10:39;;;;;;;2.87;2.57;;;37.60;25.40;;;;;;4994417;28;20445;-84
2022/08/10 12:14:02;;;;;;;2.70;2.00;;;37.70;25.00;;;;;;4984981;28;20458;-83
2022/08/10 12:16:59;;;;;;;2.63;2.30;;;38.30;24.10;;;;;;4989135;28;20445;-84
2022/08/10 12:19:48;;;;;;;2.40;2.20;;;37.80;24.50;;;;;;4986017;28;20545;-83
2022/08/10 12:22:50;;;;;;;2.60;2.50;;;37.20;25.00;;;;;;4984602;28;20457;-85
2022/08/10 12:25:47;;;;;;;2.53;2.33;;;37.60;25.00;;;;;;4982867;28;20561;-83
2022/08/10 12:28:35;;;;;;;2.57;2.37;;;37.30;24.80;;;;;;4989590;28;20454;-83
2022/08/10 12:31:38;;;;;;;2.57;2.47;;;37.70;25.20;;;;;;4998195;28;20522;-84
2022/08/10 12:34:29;;;;;;;2.37;2.27;;;37.60;25.30;;;;;;4978229;28;20473;-86
2022/08/10 12:37:25;;;;;;;2.27;2.17;;;37.70;25.40;;;;;;4976701;28;20443;-86
2022/08/10 12:40:24;;;;;;;2.67;2.47;;;37.20;25.20;;;;;;4977689;28;20449;-84
2022/08/10 12:43:50;;;;;;;2.67;2.40;;;37.20;25.60;;;;;;5005387;28;20474;-85
2022/08/10 12:46:51;;;;;;;2.50;2.30;;;38.10;24.80;;;;;;4998373;28;20941;-85
2022/08/10 12:50:08;;;;;;;2.90;2.70;;;38.10;25.10;;;;;;4984755;28;20537;-83
2022/08/10 12:53:08;;;;;;;2.90;2.70;;;37.50;25.90;;;;;;4924686;28;20496;-85
2022/08/10 12:55:37;;;;;;;3.10;2.80;;;37.70;25.70;;;;;;4983880;28;20470;-84
2022/08/10 12:58:06;;;;;;;3.13;2.50;;;37.50;25.50;;;;;;5003793;28;20482;-84
2022/08/10 13:01:07;;;;;;;2.40;2.30;;;37.30;25.80;;;;;;4997257;28;20516;-84
2022/08/10 13:03:58;;;;;;;2.60;2.40;;;37.40;25.50;;;;;;4995072;28;20514;-85
2022/08/10 13:06:59;;;;;;;2.73;2.50;;;37.90;25.30;;;;;;4993936;28;20503;-84
2022/08/10 13:09:36;;;;;;;2.70;2.50;;;38.00;25.30;;;;;;4983283;28;20455;-85
2022/08/10 13:12:29;;;;;;;2.53;2.30;;;38.20;24.90;;;;;;5007869;28;20534;-85
2022/08/10 13:15:33;;;;;;;2.93;2.60;;;37.50;25.50;;;;;;4984738;28;20447;-86
2022/08/10 13:18:29;;;;;;;3.17;2.97;;;37.00;26.30;;;;;;4984942;28;20451;-84
2022/08/10 13:21:47;;;;;;;4.00;2.60;;;36.80;26.80;;;;;;4978298;28;20465;-84
2022/08/10 13:24:38;;;;;;;2.50;2.30;;;36.90;27.10;;;;;;4958740;28;20553;-85
2022/08/10 13:27:16;;;;;;;2.13;2.03;;;37.40;27.50;;;;;;4982934;28;20450;-86
2022/08/10 13:29:59;;;;;;;4.00;3.00;;;37.50;26.80;;;;;;4984287;28;20451;-85
2022/08/10 13:32:32;;;;;;;3.10;2.83;;;37.40;26.50;;;;;;4979576;28;20514;-85
2022/08/10 13:35:20;;;;;;;2.90;2.70;;;37.00;26.10;;;;;;5004134;28;20447;-83
2022/08/10 13:37:56;;;;;;;2.87;2.67;;;37.10;26.10;;;;;;4998766;28;20443;-83
2022/08/10 13:40:37;;;;;;;2.77;2.57;;;37.30;25.70;;;;;;4985285;28;20455;-87
2022/08/10 13:43:09;;;;;;;2.93;2.70;;;36.80;26.40;;;;;;4993208;28;20523;-86
2022/08/10 13:45:40;;;;;;;2.67;2.57;;;36.80;26.50;;;;;;5006526;28;20899;-87
2022/08/10 13:48:21;;;;;;;4.40;2.43;;;37.00;27.00;;;;;;4998534;28;20451;-85
2022/08/10 13:50:54;;;;;;;3.30;3.10;;;36.80;26.40;;;;;;4991086;28;20454;-86
2022/08/10 13:53:36;;;;;;;3.93;3.63;;;36.90;26.90;;;;;;4986540;28;20463;-84
2022/08/10 13:56:07;;;;;;;3.00;2.80;;;36.80;26.40;;;;;;5001684;28;20484;-85
2022/08/10 13:58:40;;;;;;;2.80;2.60;;;36.20;27.20;;;;;;5001596;28;20428;-86
2022/08/10 14:01:35;;;;;;;2.50;2.40;;;36.30;26.60;;;;;;4993103;28;20435;-85
2022/08/10 14:04:09;;;;;;;3.27;2.77;;;36.10;26.40;;;;;;4993248;28;20518;-85
2022/08/10 14:06:40;;;;;;;2.70;2.50;;;36.00;26.80;;;;;;4982541;28;20559;-87
2022/08/10 14:09:23;;;;;;;3.43;2.97;;;35.90;26.70;;;;;;4984981;28;20529;-86
2022/08/10 14:11:57;;;;;;;2.83;2.63;;;35.90;27.10;;;;;;4983611;28;20468;-85
2022/08/10 14:14:37;;;;;;;5.60;2.83;;;36.20;27.20;;;;;;4994823;28;20479;-85
2022/08/10 14:17:06;;;;;;;5.13;2.70;;;36.10;27.20;;;;;;4999212;28;20463;-85
2022/08/10 14:19:37;;;;;;;3.00;2.37;;;35.80;27.50;;;;;;4989900;28;20545;-86
2022/08/10 14:22:12;;;;;;;4.37;2.80;;;35.80;27.60;;;;;;4993431;28;20447;-85
2022/08/10 14:24:41;;;;;;;2.60;2.40;;;35.60;27.90;;;;;;5001394;28;20985;-85
2022/08/10 14:27:13;;;;;;;3.00;2.80;;;35.50;27.90;;;;;;4982003;28;20506;-85
2022/08/10 14:29:51;;;;;;;3.20;2.97;;;35.50;27.70;;;;;;4998192;28;20451;-84
2022/08/10 14:32:24;;;;;;;2.70;2.50;;;35.70;27.60;;;;;;4993095;28;20473;-86
2022/08/10 14:34:57;;;;;;;2.93;2.73;;;35.80;27.20;;;;;;4997866;28;20446;-87
2022/08/10 14:37:55;;;;;;;3.10;2.70;;;35.50;27.80;;;;;;4994044;28;20436;-85
2022/08/10 14:40:36;;;;;;;3.07;2.87;;;35.50;28.20;;;;;;4987137;28;20461;-84
2022/08/10 14:43:08;;;;;;;3.10;2.90;;;35.40;28.40;;;;;;5004553;28;20464;-85
2022/08/10 14:45:46;;;;;;;3.37;2.87;;;35.60;28.00;;;;;;4983416;28;20560;-84
2022/08/10 14:48:24;;;;;;;3.07;2.87;;;35.50;28.50;;;;;;4982318;28;20447;-85
2022/08/10 14:50:57;;;;;;;3.53;3.23;;;35.30;28.10;;;;;;4985961;28;20456;-86
2022/08/10 14:53:31;;;;;;;3.83;3.33;;;35.30;28.00;;;;;;4990252;28;20480;-85
2022/08/10 14:56:15;;;;;;;2.70;2.60;;;35.10;28.80;;;;;;5003165;28;20451;-83